Time;durP1;ratioP1;P1;durP2;ratioP2;P2;SDS_P1;SDS_P2;PMS_P1;PMS_P2;Temp;Humidity;BMP_temperature;BMP_pressure;BME280_temperature;BME280_humidity;BME280_pressure;Samples;Min_cycle;Max_cycle;Signal;HPM_P1;HPM_P2
2022/01/24 05:01:11;;;;;;;27.20;12.15;;;;;;;-6.51;92.94;102270.16;6523653;27;33491;-80
2022/01/24 05:04:14;;;;;;;23.20;12.65;;;;;;;-6.37;92.02;102276.06;6526550;27;34673;-79
2022/01/24 05:07:17;;;;;;;30.15;13.80;;;;;;;-6.47;92.80;102277.94;6540034;27;34425;-79
2022/01/24 05:10:32;;;;;;;32.17;13.27;;;;;;;-6.51;93.12;102280.66;6521115;27;125323;-80
2022/01/24 05:23:43;;;;;;;39.53;19.85;;;;;;;-6.78;92.70;102295.00;6524146;27;34376;-80
2022/01/24 05:26:46;;;;;;;43.90;22.65;;;;;;;-6.87;93.84;102307.31;6525210;27;33910;-80
2022/01/24 05:29:48;;;;;;;44.70;22.42;;;;;;;-6.99;93.46;102303.94;6526654;27;34090;-80
2022/01/24 05:32:51;;;;;;;50.67;24.95;;;;;;;-7.04;93.31;102308.41;6523927;27;34972;-80
2022/01/24 05:35:54;;;;;;;45.05;23.15;;;;;;;-7.13;93.57;102320.69;6524360;27;34027;-80
2022/01/24 05:38:59;;;;;;;43.03;21.02;;;;;;;-7.16;93.74;102312.88;6524237;27;33700;-79
2022/01/24 05:42:02;;;;;;;39.92;22.25;;;;;;;-7.21;93.55;102322.53;6523659;27;33998;-80
2022/01/24 05:45:06;;;;;;;38.05;20.77;;;;;;;-7.27;93.87;102319.97;6527844;27;34336;-79
2022/01/24 05:48:09;;;;;;;45.78;22.27;;;;;;;-7.27;94.37;102326.97;6533303;27;34365;-79
2022/01/24 05:51:12;;;;;;;52.17;21.92;;;;;;;-7.33;93.83;102323.53;6525209;27;34863;-80
2022/01/24 05:54:15;;;;;;;43.63;20.75;;;;;;;-7.32;94.82;102332.25;6525552;27;34775;-80
2022/01/24 05:57:18;;;;;;;34.63;15.60;;;;;;;-7.34;95.10;102327.03;6527989;27;34072;-80
2022/01/24 06:00:22;;;;;;;40.22;19.35;;;;;;;-7.11;95.84;102328.53;6547347;27;34337;-80
2022/01/24 06:03:27;;;;;;;37.92;16.92;;;;;;;-6.96;95.31;102336.22;6560111;27;34465;-80
2022/01/24 06:06:30;;;;;;;35.05;17.20;;;;;;;-6.93;94.37;102351.00;6554488;27;35009;-80
2022/01/24 06:09:33;;;;;;;38.38;19.30;;;;;;;-6.96;94.92;102345.81;6551924;27;34376;-81
2022/01/24 06:12:36;;;;;;;35.65;17.77;;;;;;;-6.79;94.43;102343.00;6551875;27;33391;-80
2022/01/24 06:15:39;;;;;;;32.65;15.95;;;;;;;-6.73;93.65;102354.25;6554163;27;34333;-80
2022/01/24 06:18:41;;;;;;;34.90;17.50;;;;;;;-6.63;92.68;102352.41;6559315;27;34591;-80
2022/01/24 06:21:45;;;;;;;36.63;16.98;;;;;;;-6.68;92.20;102351.59;6555990;27;35036;-80
2022/01/24 06:24:48;;;;;;;35.55;18.45;;;;;;;-6.68;93.20;102352.44;6552536;27;34424;-80
2022/01/24 06:28:11;;;;;;;36.47;18.70;;;;;;;-6.69;92.41;102352.47;6551641;27;34249;-80
2022/01/24 06:31:14;;;;;;;31.05;16.20;;;;;;;-6.67;92.66;102367.31;6552082;27;34138;-80
2022/01/24 06:34:17;;;;;;;35.67;18.30;;;;;;;-6.66;92.87;102373.41;6553691;27;34126;-80
2022/01/24 06:37:20;;;;;;;33.35;17.48;;;;;;;-6.70;93.29;102375.19;6553489;27;34136;-80
2022/01/24 06:40:23;;;;;;;37.35;17.05;;;;;;;-6.80;93.84;102375.31;6553719;27;33875;-80
2022/01/24 06:43:26;;;;;;;34.78;18.50;;;;;;;-6.78;93.71;102377.03;6557368;27;33648;-79
2022/01/24 06:46:29;;;;;;;43.50;18.25;;;;;;;-6.82;93.98;102383.16;6555343;27;34814;-80
2022/01/24 06:49:34;;;;;;;38.67;18.20;;;;;;;-6.76;93.65;102385.72;6552891;27;34825;-80
2022/01/24 06:52:37;;;;;;;38.75;19.60;;;;;;;-6.60;93.14;102391.66;6552892;27;33710;-79
2022/01/24 06:55:39;;;;;;;44.83;18.87;;;;;;;-6.58;93.30;102405.63;6552782;27;34782;-80
2022/01/24 06:58:43;;;;;;;37.58;17.77;;;;;;;-6.43;92.26;102401.94;6553332;27;34209;-81
2022/01/24 07:01:45;;;;;;;39.28;18.35;;;;;;;-6.36;90.70;102408.81;6552377;27;34869;-81
2022/01/24 07:04:49;;;;;;;36.10;18.58;;;;;;;-6.20;90.23;102405.12;6554249;27;34050;-80
2022/01/24 07:07:56;;;;;;;36.67;19.10;;;;;;;-6.14;89.93;102403.28;6553901;27;33556;-84
2022/01/24 07:10:59;;;;;;;36.50;18.37;;;;;;;-5.94;89.61;102411.72;6555247;27;34187;-84
2022/01/24 07:14:06;;;;;;;32.33;16.42;;;;;;;-5.90;88.67;102408.16;6557561;27;34795;-84
2022/01/24 07:20:18;;;;;;;34.05;17.42;;;;;;;-5.61;86.96;102409.47;6552460;27;34774;-81
2022/01/24 07:23:21;;;;;;;35.90;18.05;;;;;;;-5.43;86.47;102414.41;6553189;27;34057;-81
2022/01/24 07:26:30;;;;;;;36.25;17.30;;;;;;;-5.36;85.77;102423.06;6553589;27;34151;-81
2022/01/24 07:29:33;;;;;;;36.83;18.30;;;;;;;-5.32;85.50;102436.13;6553146;27;35343;-81
2022/01/24 07:32:36;;;;;;;37.38;17.60;;;;;;;-5.21;85.39;102435.91;6552306;27;33565;-81
2022/01/24 07:35:41;;;;;;;36.97;16.98;;;;;;;-4.59;83.32;102433.06;6552268;27;34190;-80
2022/01/24 07:38:43;;;;;;;34.25;17.58;;;;;;;-3.63;78.16;102442.38;6553015;27;34195;-81
2022/01/24 07:41:47;;;;;;;34.70;18.45;;;;;;;-3.48;76.17;102448.16;6553394;27;34122;-81
2022/01/24 07:44:50;;;;;;;37.97;19.33;;;;;;;-3.59;76.37;102447.53;6553959;27;33845;-81
2022/01/24 07:47:54;;;;;;;33.35;17.67;;;;;;;-3.78;78.07;102451.50;6561377;27;33810;-80
2022/01/24 07:50:57;;;;;;;33.30;18.48;;;;;;;-3.77;77.71;102459.38;6572696;27;34228;-80
2022/01/24 07:54:04;;;;;;;34.13;18.05;;;;;;;-3.70;77.55;102453.03;6557596;27;36544;-80
2022/01/24 07:57:07;;;;;;;39.22;19.05;;;;;;;-3.75;77.37;102464.56;6558472;27;34222;-81
2022/01/24 08:00:13;;;;;;;34.53;17.77;;;;;;;-3.80;77.08;102467.34;6560284;27;34536;-80
2022/01/24 08:03:16;;;;;;;33.10;17.75;;;;;;;-3.68;75.78;102463.56;6555118;27;34775;-80
2022/01/24 08:06:19;;;;;;;43.25;19.40;;;;;;;-3.62;74.63;102459.91;6553107;27;34175;-80
2022/01/24 08:09:22;;;;;;;28.38;15.50;;;;;;;-3.44;74.70;102459.47;6554744;27;34052;-80
2022/01/24 08:12:25;;;;;;;34.15;16.70;;;;;;;-3.44;72.68;102459.47;6560665;27;33743;-80
2022/01/24 08:15:29;;;;;;;31.42;15.43;;;;;;;-3.22;72.80;102460.69;6567273;27;34202;-81
2022/01/24 08:18:31;;;;;;;26.30;13.77;;;;;;;-3.04;71.86;102466.38;6553514;27;34695;-80
2022/01/24 08:21:34;;;;;;;27.67;14.52;;;;;;;-3.26;69.95;102471.34;6553056;27;34503;-81
2022/01/24 08:24:37;;;;;;;24.92;13.27;;;;;;;-3.07;69.69;102471.72;6553706;27;34570;-80
2022/01/24 08:27:40;;;;;;;25.67;12.68;;;;;;;-2.84;67.74;102473.78;6553536;27;35184;-80
2022/01/24 08:30:45;;;;;;;23.02;12.02;;;;;;;-2.47;65.28;102478.94;6556473;27;34213;-80
2022/01/24 08:33:49;;;;;;;24.75;11.82;;;;;;;-2.35;63.21;102477.72;6567432;27;33710;-80
2022/01/24 08:36:52;;;;;;;15.82;9.82;;;;;;;-2.26;64.00;102480.09;6556439;27;34349;-80
2022/01/24 08:39:56;;;;;;;21.52;11.77;;;;;;;-2.17;62.37;102485.09;6553290;27;34372;-80
2022/01/24 08:43:13;;;;;;;19.62;11.93;;;;;;;-2.17;62.25;102477.19;6553014;27;34040;-81
2022/01/24 08:46:17;;;;;;;23.52;11.57;;;;;;;-2.24;62.36;102486.22;6553870;27;33995;-80
2022/01/24 08:49:20;;;;;;;21.50;12.10;;;;;;;-2.26;62.11;102482.75;6553771;27;34100;-81
2022/01/24 08:52:23;;;;;;;22.55;10.98;;;;;;;-2.06;63.19;102477.75;6553353;27;33652;-79
2022/01/24 08:55:45;;;;;;;19.73;11.68;;;;;;;-1.97;61.14;102484.53;6556788;27;33766;-81
2022/01/24 08:58:49;;;;;;;23.15;12.32;;;;;;;-1.94;60.69;102479.16;6552808;27;34615;-80
2022/01/24 09:01:52;;;;;;;22.92;11.77;;;;;;;-1.72;61.17;102479.41;6551781;27;34178;-81
2022/01/24 09:04:55;;;;;;;22.27;11.18;;;;;;;-1.79;60.58;102476.97;6553155;27;34009;-81
2022/01/24 09:07:58;;;;;;;20.65;10.45;;;;;;;-1.82;60.89;102476.16;6558098;27;34174;-81
2022/01/24 09:11:02;;;;;;;20.70;11.18;;;;;;;-1.62;59.70;102480.81;6552885;27;33944;-82
2022/01/24 09:14:06;;;;;;;22.40;11.48;;;;;;;-1.56;58.47;102481.56;6553612;27;32627;-80
2022/01/24 09:17:11;;;;;;;23.90;11.52;;;;;;;-1.33;58.08;102486.12;6554037;27;34619;-80
2022/01/24 09:20:14;;;;;;;24.65;11.35;;;;;;;-1.28;57.59;102477.13;6553225;27;34060;-81
2022/01/24 09:23:18;;;;;;;25.30;11.05;;;;;;;-1.33;57.18;102476.41;6560105;27;34735;-81
2022/01/24 09:26:22;;;;;;;24.92;11.38;;;;;;;-1.39;57.59;102484.53;6555538;27;34044;-81
2022/01/24 09:29:25;;;;;;;23.85;11.98;;;;;;;-1.21;57.94;102481.28;6570661;27;34800;-81
2022/01/24 09:32:28;;;;;;;20.83;11.07;;;;;;;-1.17;57.04;102480.28;6561586;27;35716;-80
2022/01/24 09:35:31;;;;;;;21.42;9.93;;;;;;;-1.05;56.29;102479.00;6553603;27;34300;-81
2022/01/24 09:38:34;;;;;;;20.10;10.73;;;;;;;-0.93;54.64;102477.72;6553629;27;34295;-80
2022/01/24 09:41:43;;;;;;;18.98;9.27;;;;;;;-0.94;55.88;102482.16;6553001;27;35380;-81
2022/01/24 09:45:08;;;;;;;15.35;8.65;;;;;;;-0.91;54.93;102481.16;6553087;27;34281;-81
2022/01/24 09:48:12;;;;;;;13.73;7.22;;;;;;;-0.90;52.54;102474.13;6554996;27;34425;-80
2022/01/24 09:51:14;;;;;;;13.57;8.27;;;;;;;-0.86;52.68;102468.66;6558958;27;34791;-80
2022/01/24 09:54:17;;;;;;;15.98;9.18;;;;;;;-0.59;53.61;102463.31;6566170;27;33983;-80
2022/01/24 09:57:20;;;;;;;16.77;9.18;;;;;;;-0.57;53.09;102464.16;6556101;27;34387;-81
2022/01/24 10:00:26;;;;;;;17.20;7.97;;;;;;;-0.49;53.48;102462.94;6560627;27;34080;-80
2022/01/24 10:03:29;;;;;;;14.63;7.32;;;;;;;-0.54;51.91;102461.38;6564385;27;35234;-81
2022/01/24 10:06:59;;;;;;;19.98;7.87;;;;;;;-0.46;52.05;102469.91;6551727;27;34705;-81
2022/01/24 10:10:07;;;;;;;15.40;7.75;;;;;;;-0.22;51.33;102467.28;6552329;27;34193;-80
2022/01/24 10:16:46;;;;;;;11.90;7.18;;;;;;;-0.15;50.48;102458.19;6561197;27;34445;-81
2022/01/24 10:19:49;;;;;;;14.30;7.22;;;;;;;-0.24;49.27;102454.09;6553588;27;34237;-81
2022/01/24 10:23:16;;;;;;;12.63;7.18;;;;;;;-0.44;50.26;102456.63;6553241;27;34778;-81
2022/01/24 10:26:18;;;;;;;13.48;7.93;;;;;;;-0.41;49.73;102445.91;6552290;27;34942;-81
2022/01/24 10:29:26;;;;;;;12.73;7.50;;;;;;;-0.30;50.09;102451.69;6552580;27;33781;-81
2022/01/24 10:32:36;;;;;;;13.18;6.68;;;;;;;-0.21;49.38;102451.34;6552657;27;35033;-81
2022/01/24 10:35:45;;;;;;;14.05;8.13;;;;;;;-0.22;49.19;102454.91;6552325;27;34454;-80
2022/01/24 10:38:55;;;;;;;12.20;7.07;;;;;;;-0.13;48.88;102457.22;6555114;27;35515;-80
2022/01/24 10:45:31;;;;;;;11.52;7.15;;;;;;;0.10;48.03;102453.69;6563388;27;35505;-81
2022/01/24 10:48:40;;;;;;;13.68;7.28;;;;;;;0.14;47.93;102446.50;6554170;27;34241;-80
2022/01/24 10:51:47;;;;;;;16.80;7.50;;;;;;;0.07;47.47;102451.16;6552239;27;33794;-80
2022/01/24 10:55:11;;;;;;;13.05;7.00;;;;;;;-0.13;47.46;102446.63;6553116;27;33617;-81
2022/01/24 10:58:18;;;;;;;11.10;6.78;;;;;;;-0.22;47.94;102452.28;6553448;27;33724;-81
2022/01/24 11:01:25;;;;;;;10.52;6.62;;;;;;;-0.10;47.17;102441.22;6555121;27;34180;-81
2022/01/24 11:04:28;;;;;;;12.05;5.93;;;;;;;0.04;47.05;102443.34;6555016;27;34057;-81
2022/01/24 11:07:45;;;;;;;13.38;7.00;;;;;;;0.36;46.18;102443.87;6556220;27;34174;-81
2022/01/24 11:10:50;;;;;;;15.73;6.87;;;;;;;0.32;46.34;102439.59;6552072;27;33659;-81
2022/01/24 11:13:59;;;;;;;14.73;7.40;;;;;;;0.37;46.21;102435.00;6552123;27;34695;-80
2022/01/24 11:17:04;;;;;;;10.20;6.65;;;;;;;0.55;45.65;102426.28;6554207;27;34788;-81
2022/01/24 11:20:11;;;;;;;12.80;6.75;;;;;;;0.55;45.01;102428.06;6554181;27;35219;-81
2022/01/24 11:23:20;;;;;;;11.40;7.05;;;;;;;0.72;45.89;102438.84;6554276;27;35760;-80
2022/01/24 11:26:24;;;;;;;;;;;;;;;0.81;46.17;102430.50;6558337;27;34308;-80
2022/01/24 11:29:27;;;;;;;14.30;6.70;;;;;;;1.20;45.99;102431.53;6562628;27;34960;-80
2022/01/24 11:33:22;;;;;;;14.93;7.37;;;;;;;1.45;44.23;102432.19;6566618;27;35156;-80
2022/01/24 11:36:37;;;;;;;14.32;7.70;;;;;;;1.60;43.24;102430.63;6433704;27;34215;-81
2022/01/24 11:39:53;;;;;;;11.30;6.87;;;;;;;1.46;44.18;102423.28;6445809;27;34055;-81
2022/01/24 11:42:57;;;;;;;14.35;7.40;;;;;;;1.73;44.15;102410.56;6554893;27;34324;-84
2022/01/24 11:46:24;;;;;;;12.52;6.93;;;;;;;1.93;43.62;102416.72;6554211;27;34049;-85
2022/01/24 11:49:35;;;;;;;12.93;6.50;;;;;;;2.31;41.21;102408.72;6558052;27;33958;-80
2022/01/24 11:52:38;;;;;;;11.35;7.03;;;;;;;2.88;40.92;102396.13;6557768;27;34195;-80
2022/01/24 11:55:41;;;;;;;12.55;6.75;;;;;;;3.02;38.44;102398.09;6559972;27;34791;-80
2022/01/24 11:58:44;;;;;;;11.25;6.60;;;;;;;3.56;38.17;102396.13;6542327;27;32533;-80
2022/01/24 12:01:54;;;;;;;11.88;6.72;;;;;;;3.51;37.12;102388.38;6555039;27;33735;-80
2022/01/24 12:05:08;;;;;;;9.88;6.28;;;;;;;4.17;36.54;102391.88;6556033;27;35382;-80
2022/01/24 12:08:26;;;;;;;9.73;6.15;;;;;;;4.72;35.31;102383.34;6558313;27;35415;-80
2022/01/24 12:11:37;;;;;;;20.65;8.20;;;;;;;4.21;35.97;102385.41;6553310;27;34024;-81
2022/01/24 12:15:01;;;;;;;13.30;7.65;;;;;;;5.02;34.26;102374.47;6533968;27;34713;-80
2022/01/24 12:18:06;;;;;;;11.88;6.70;;;;;;;6.11;35.02;102374.75;6555101;27;33880;-80
2022/01/24 12:21:11;;;;;;;12.65;6.22;;;;;;;6.94;31.73;102363.00;6570336;27;34887;-81
2022/01/24 12:24:14;;;;;;;9.27;6.30;;;;;;;7.55;30.13;102369.44;6565061;27;34214;-81
2022/01/24 12:27:25;;;;;;;13.93;6.50;;;;;;;8.78;27.84;102363.09;6566710;27;34230;-80
2022/01/24 12:30:59;;;;;;;11.20;6.65;;;;;;;9.63;27.05;102366.25;6559635;27;34299;-80
2022/01/24 12:34:09;;;;;;;14.18;7.55;;;;;;;10.47;25.39;102353.16;6554010;27;34495;-81
2022/01/24 12:37:27;;;;;;;13.48;7.15;;;;;;;12.04;23.93;102356.56;6553719;27;34817;-81
2022/01/24 12:40:37;;;;;;;10.52;6.68;;;;;;;11.81;23.81;102362.13;6553479;27;34360;-81
2022/01/24 12:43:54;;;;;;;9.73;6.07;;;;;;;10.95;23.39;102362.59;6553941;27;35664;-81
2022/01/24 12:46:58;;;;;;;9.50;6.28;;;;;;;11.92;24.21;102361.22;6553710;27;33950;-81
2022/01/24 12:50:01;;;;;;;10.45;5.72;;;;;;;11.10;23.73;102345.94;6555365;27;34440;-81
2022/01/24 12:53:10;;;;;;;10.40;5.80;;;;;;;10.40;24.08;102349.25;6560413;27;34693;-80
2022/01/24 12:56:15;;;;;;;10.13;6.65;;;;;;;11.10;23.74;102345.06;6554913;27;33890;-81
2022/01/24 12:59:17;;;;;;;11.32;6.68;;;;;;;12.11;23.24;102355.03;6553243;27;34760;-81
2022/01/24 13:02:27;;;;;;;9.27;6.78;;;;;;;12.08;21.62;102349.91;6553022;27;33849;-81
2022/01/24 13:05:36;;;;;;;10.27;6.93;;;;;;;11.79;21.89;102345.25;6552948;27;34411;-81
2022/01/24 13:08:50;;;;;;;;;;;;;;;11.92;22.00;102347.72;6553997;27;34499;-81
2022/01/24 13:12:03;;;;;;;10.10;7.12;;;;;;;12.11;22.38;102346.94;6550692;27;34616;-81
2022/01/24 13:15:21;;;;;;;13.00;6.40;;;;;;;12.30;22.50;102346.09;6552706;27;34629;-81
2022/01/24 13:22:00;;;;;;;12.15;6.75;;;;;;;8.06;26.88;102344.31;6553791;27;33840;-81
2022/01/24 13:25:08;;;;;;;11.43;7.32;;;;;;;4.95;30.92;102345.47;6551146;27;33714;-81
2022/01/24 13:28:13;;;;;;;14.63;7.95;;;;;;;3.79;34.07;102347.75;6552511;27;33909;-80
2022/01/24 13:31:16;;;;;;;14.13;7.20;;;;;;;2.97;35.33;102347.78;6534588;27;33885;-81
2022/01/24 13:34:19;;;;;;;13.02;6.95;;;;;;;2.34;36.86;102353.66;6553783;27;34281;-80
2022/01/24 13:37:35;;;;;;;13.23;7.40;;;;;;;2.02;37.27;102361.38;6552332;27;33647;-80
2022/01/24 13:41:12;;;;;;;13.30;7.62;;;;;;;1.55;38.32;102353.88;6559886;27;34125;-80
2022/01/24 13:44:14;;;;;;;11.18;7.18;;;;;;;1.50;39.22;102365.63;6570009;27;34278;-80
2022/01/24 13:47:21;;;;;;;12.60;6.87;;;;;;;1.15;39.73;102361.91;6560763;27;34432;-80
2022/01/24 13:50:25;;;;;;;14.48;7.70;;;;;;;0.84;41.62;102361.44;6559745;27;35162;-80
2022/01/24 13:53:51;;;;;;;10.55;7.43;;;;;;;0.63;41.37;102359.72;6556343;27;34571;-80
2022/01/24 13:57:06;;;;;;;11.20;6.53;;;;;;;0.54;40.84;102357.47;6538309;27;34396;-80
2022/01/24 14:00:10;;;;;;;11.25;7.07;;;;;;;0.34;41.63;102351.19;6554683;27;35011;-80
2022/01/24 14:03:13;;;;;;;13.00;7.30;;;;;;;0.25;42.56;102356.00;6557129;27;34699;-80
2022/01/24 14:06:31;;;;;;;16.67;7.20;;;;;;;0.20;43.70;102357.03;6557193;27;34394;-84
2022/01/24 14:09:52;;;;;;;12.32;7.28;;;;;;;0.08;43.32;102364.63;6560442;27;34155;-83
2022/01/24 14:12:57;;;;;;;10.88;6.85;;;;;;;0.01;42.82;102363.16;6560265;27;34136;-81
2022/01/24 14:16:08;;;;;;;10.73;7.53;;;;;;;-0.02;43.12;102358.84;6552204;27;34288;-81
2022/01/24 14:19:11;;;;;;;13.43;7.50;;;;;;;-0.01;43.17;102358.78;6553538;27;34148;-81
2022/01/24 14:22:18;;;;;;;14.02;7.35;;;;;;;-0.01;44.13;102357.91;6563980;27;34142;-80
2022/01/24 14:25:31;;;;;;;13.02;7.10;;;;;;;-0.13;44.28;102361.91;6553036;27;34281;-81
2022/01/24 14:28:34;;;;;;;13.50;7.03;;;;;;;-0.16;45.41;102358.53;6562674;27;34188;-80
2022/01/24 14:31:37;;;;;;;13.73;7.62;;;;;;;-0.24;45.16;102353.53;6568772;27;35423;-81
2022/01/24 14:34:40;;;;;;;16.17;8.30;;;;;;;-0.26;45.24;102355.37;6551403;27;34129;-81
2022/01/24 14:37:47;;;;;;;15.65;7.35;;;;;;;-0.28;44.74;102352.78;6552390;27;34127;-82
2022/01/24 14:40:52;;;;;;;12.43;7.45;;;;;;;-0.34;45.01;102344.22;6552428;27;33756;-81
2022/01/24 14:47:21;;;;;;;12.77;7.40;;;;;;;-0.39;46.01;102344.38;6554198;27;34289;-81
2022/01/24 14:50:24;;;;;;;14.10;7.80;;;;;;;-0.50;46.06;102344.81;6553284;27;34546;-81
2022/01/24 14:53:29;;;;;;;17.23;8.40;;;;;;;-0.58;46.49;102351.31;6555076;27;34109;-82
2022/01/24 14:56:34;;;;;;;12.50;7.65;;;;;;;-0.64;46.59;102341.84;6558744;27;34878;-81
2022/01/24 14:59:44;;;;;;;14.18;8.23;;;;;;;-0.68;46.86;102337.56;6562361;27;35082;-80
2022/01/24 15:02:47;;;;;;;18.45;7.75;;;;;;;-0.76;46.91;102334.31;6562934;27;34263;-81
2022/01/24 15:05:50;;;;;;;18.30;8.38;;;;;;;-0.88;48.74;102340.06;6554066;27;34577;-80
2022/01/24 15:08:56;;;;;;;17.77;7.97;;;;;;;-0.98;47.95;102340.41;6560857;27;35253;-80
2022/01/24 15:12:04;;;;;;;16.00;8.18;;;;;;;-0.95;47.54;102344.72;6570251;27;33972;-80
2022/01/24 15:15:09;;;;;;;15.25;8.00;;;;;;;-0.97;48.33;102344.75;6556390;27;34478;-81
2022/01/24 15:28:19;;;;;;;17.60;9.02;;;;;;;-1.32;49.31;102359.22;6553371;27;34117;-80
2022/01/24 15:31:22;;;;;;;18.67;8.80;;;;;;;-1.39;49.76;102357.72;6553145;27;34954;-81
2022/01/24 15:34:25;;;;;;;17.02;8.88;;;;;;;-1.44;49.64;102351.72;6551411;27;35408;-81
2022/01/24 15:37:28;;;;;;;15.63;8.45;;;;;;;-1.57;50.92;102359.19;6553528;27;34012;-81
2022/01/24 15:40:36;;;;;;;17.17;8.50;;;;;;;-1.65;50.64;102353.31;6559116;27;33727;-81
2022/01/24 15:43:55;;;;;;;17.33;8.93;;;;;;;-1.71;51.57;102366.72;6555208;27;34322;-80
2022/01/24 15:50:11;;;;;;;19.17;9.63;;;;;;;-1.92;53.49;102363.84;6559451;27;33883;-81
2022/01/24 15:53:14;;;;;;;19.62;9.30;;;;;;;-2.00;53.44;102357.94;6556084;27;35246;-80
2022/01/24 15:59:40;;;;;;;16.12;9.25;;;;;;;-1.99;55.14;102364.06;6519302;27;33790;-81
2022/01/24 16:02:49;;;;;;;19.75;9.45;;;;;;;-2.03;55.40;102362.47;6552858;27;34762;-80
2022/01/24 16:05:52;;;;;;;19.00;9.43;;;;;;;-2.09;56.01;102372.28;6560633;27;34195;-80
2022/01/24 16:08:55;;;;;;;23.02;10.73;;;;;;;-2.12;55.71;102368.87;6554585;27;33976;-84
2022/01/24 16:11:58;;;;;;;24.40;10.82;;;;;;;-2.00;56.75;102363.22;6553740;27;34024;-84
2022/01/24 16:15:00;;;;;;;22.55;10.38;;;;;;;-1.96;56.37;102364.88;6553678;27;34129;-84
2022/01/24 16:18:07;;;;;;;30.62;10.38;;;;;;;-1.88;56.43;102364.59;6555590;27;33657;-84
2022/01/24 16:27:35;;;;;;;21.00;10.10;;;;;;;-2.16;57.57;102378.69;6552412;27;34895;-81
2022/01/24 16:30:41;;;;;;;20.85;10.95;;;;;;;-2.21;57.96;102374.44;6556068;27;34057;-81
2022/01/24 16:33:44;;;;;;;21.83;10.68;;;;;;;-2.32;59.18;102383.53;6559031;27;34961;-81
2022/01/24 16:36:48;;;;;;;24.85;10.77;;;;;;;-2.43;61.26;102385.63;6567827;27;33716;-80
2022/01/24 16:39:52;;;;;;;22.45;10.18;;;;;;;-2.49;61.78;102395.50;6564641;27;35008;-80
2022/01/24 16:43:53;;;;;;;22.10;11.20;;;;;;;-2.24;59.83;102395.66;6553965;27;34160;-81
2022/01/24 16:50:25;;;;;;;23.73;11.68;;;;;;;-2.36;61.66;102396.88;6495291;27;34413;-81
2022/01/24 16:53:29;;;;;;;20.75;10.95;;;;;;;-2.44;61.57;102399.72;6496129;27;34237;-80
2022/01/24 16:56:32;;;;;;;20.73;11.60;;;;;;;-2.10;60.21;102404.00;6552870;27;34031;-80
2022/01/24 16:59:40;;;;;;;19.55;11.70;;;;;;;-2.12;59.66;102400.53;6552663;27;34656;-80
